Time;durP1;ratioP1;P1;durP2;ratioP2;P2;SDS_P1;SDS_P2;PMS_P1;PMS_P2;Temp;Humidity;BMP_temperature;BMP_pressure;BME280_temperature;BME280_humidity;BME280_pressure;Samples;Min_cycle;Max_cycle;Signal;HPM_P1;HPM_P2
2023/06/29 00:00:28;;;;;;;;;;;25.20;51.60;;;;;;5056505;28;19928;-59
2023/06/29 00:02:55;;;;;;;;;;;25.20;51.60;;;;;;5056437;28;19925;-59
2023/06/29 00:05:22;;;;;;;;;;;25.20;51.60;;;;;;5055959;28;19975;-59
2023/06/29 00:07:49;;;;;;;;;;;25.20;51.50;;;;;;5055930;28;19920;-59
2023/06/29 00:10:17;;;;;;;;;;;25.20;51.50;;;;;;5055668;28;19975;-59
2023/06/29 00:12:44;;;;;;;;;;;25.20;51.50;;;;;;5055968;28;19924;-59
2023/06/29 00:15:11;;;;;;;;;;;25.20;51.60;;;;;;5055553;28;19921;-59
2023/06/29 00:17:38;;;;;;;;;;;25.20;51.50;;;;;;5056095;28;19964;-59
2023/06/29 00:20:10;;;;;;;;;;;25.20;51.50;;;;;;5055330;28;19920;-59
2023/06/29 00:22:40;;;;;;;;;;;25.20;51.50;;;;;;5055992;28;19921;-59
2023/06/29 00:25:08;;;;;;;;;;;25.20;51.60;;;;;;5055736;28;19921;-59
2023/06/29 00:27:36;;;;;;;;;;;25.20;51.60;;;;;;5055754;28;19920;-59
2023/06/29 00:30:03;;;;;;;;;;;25.20;51.60;;;;;;5055383;28;19975;-59
2023/06/29 00:32:30;;;;;;;;;;;25.20;51.60;;;;;;5055821;28;19971;-59
2023/06/29 00:34:57;;;;;;;;;;;25.10;51.50;;;;;;5056031;28;19920;-60
2023/06/29 00:37:25;;;;;;;;;;;25.10;51.60;;;;;;5055724;28;19966;-59
2023/06/29 00:39:52;;;;;;;;;;;25.10;51.60;;;;;;5055175;28;19978;-59
2023/06/29 00:42:19;;;;;;;;;;;25.10;51.60;;;;;;5055351;28;19967;-60
2023/06/29 00:44:47;;;;;;;;;;;25.10;51.60;;;;;;5055745;28;19963;-59
2023/06/29 00:47:14;;;;;;;;;;;25.10;51.60;;;;;;5055314;28;20020;-59
2023/06/29 00:49:42;;;;;;;;;;;25.10;51.60;;;;;;5055032;28;20328;-59
2023/06/29 00:52:09;;;;;;;;;;;25.10;51.70;;;;;;5055508;28;19920;-59
2023/06/29 00:54:37;;;;;;;;;;;25.10;51.70;;;;;;5054717;28;19920;-58
2023/06/29 00:57:04;;;;;;;;;;;25.10;51.70;;;;;;5054973;28;19924;-59
2023/06/29 00:59:31;;;;;;;;;;;25.10;51.70;;;;;;5055382;28;19920;-59
2023/06/29 01:01:58;;;;;;;;;;;25.10;51.70;;;;;;5055020;28;19968;-59
2023/06/29 01:04:26;;;;;;;;;;;25.10;51.90;;;;;;5054983;28;19921;-59
2023/06/29 01:07:06;;;;;;;;;;;25.10;51.70;;;;;;5055546;28;19928;-59
2023/06/29 01:09:34;;;;;;;;;;;25.10;51.70;;;;;;5055255;28;19931;-59
2023/06/29 01:12:02;;;;;;;;;;;25.10;51.70;;;;;;5055460;28;19974;-59
2023/06/29 01:14:30;;;;;;;;;;;25.10;51.70;;;;;;5055050;28;19964;-59
2023/06/29 01:16:58;;;;;;;;;;;25.10;51.80;;;;;;5054724;28;19921;-60
2023/06/29 01:19:28;;;;;;;;;;;25.10;51.70;;;;;;5054477;28;19950;-59
2023/06/29 01:21:59;;;;;;;;;;;25.10;51.80;;;;;;5054784;28;19974;-59
2023/06/29 01:24:26;;;;;;;;;;;25.10;51.70;;;;;;5054975;28;19920;-59
2023/06/29 01:26:53;;;;;;;;;;;25.00;51.70;;;;;;5054413;28;20511;-59
2023/06/29 01:29:24;;;;;;;;;;;25.10;51.70;;;;;;5054768;28;20382;-59
2023/06/29 01:32:00;;;;;;;;;;;25.10;51.80;;;;;;5054980;28;19921;-59
2023/06/29 01:34:28;;;;;;;;;;;25.00;52.30;;;;;;5054292;28;19921;-59
2023/06/29 01:37:01;;;;;;;;;;;25.00;51.70;;;;;;5054464;28;19920;-59
2023/06/29 01:39:30;;;;;;;;;;;25.10;51.80;;;;;;5054386;28;20381;-59
2023/06/29 01:41:57;;;;;;;;;;;25.00;51.70;;;;;;5054228;28;19920;-59
2023/06/29 01:44:24;;;;;;;;;;;25.00;51.70;;;;;;5054700;28;19960;-59
2023/06/29 01:46:52;;;;;;;;;;;25.00;51.70;;;;;;5054973;28;19920;-59
2023/06/29 01:49:19;;;;;;;;;;;25.00;51.70;;;;;;5054624;28;19928;-59
2023/06/29 01:51:46;;;;;;;;;;;25.00;51.70;;;;;;5054183;28;20020;-59
2023/06/29 01:54:13;;;;;;;;;;;25.00;51.70;;;;;;5054022;28;19920;-59
2023/06/29 01:56:40;;;;;;;;;;;25.00;51.80;;;;;;5053895;28;19921;-59
2023/06/29 01:59:07;;;;;;;;;;;25.00;51.80;;;;;;5054297;28;19925;-59
2023/06/29 02:01:34;;;;;;;;;;;25.00;51.70;;;;;;5053710;28;19987;-59
2023/06/29 02:04:01;;;;;;;;;;;25.00;51.70;;;;;;5053961;28;19925;-60
2023/06/29 02:06:29;;;;;;;;;;;25.00;51.70;;;;;;5052763;28;19920;-59
2023/06/29 02:08:56;;;;;;;;;;;25.00;51.70;;;;;;5053719;28;19943;-59
2023/06/29 02:11:23;;;;;;;;;;;25.00;51.70;;;;;;5053344;28;19951;-59
2023/06/29 02:13:50;;;;;;;;;;;25.10;51.70;;;;;;5054209;28;19930;-59
2023/06/29 02:16:17;;;;;;;;;;;25.10;51.70;;;;;;5053943;28;19921;-59
2023/06/29 02:18:44;;;;;;;;;;;25.00;51.60;;;;;;5053802;28;20269;-59
2023/06/29 02:21:12;;;;;;;;;;;25.10;51.70;;;;;;5054050;28;20258;-59
2023/06/29 02:23:39;;;;;;;;;;;25.10;51.60;;;;;;5053604;28;19935;-59
2023/06/29 02:26:06;;;;;;;;;;;25.00;51.60;;;;;;5053238;28;20439;-59
2023/06/29 02:28:33;;;;;;;;;;;25.10;51.60;;;;;;5053493;28;19985;-59
2023/06/29 02:31:00;;;;;;;;;;;25.10;51.60;;;;;;5053393;28;19951;-59
2023/06/29 02:33:27;;;;;;;;;;;25.10;51.60;;;;;;5053604;28;19924;-59
2023/06/29 02:35:54;;;;;;;;;;;25.10;51.60;;;;;;5053545;28;20007;-59
2023/06/29 02:38:21;;;;;;;;;;;25.00;51.50;;;;;;5053325;28;19956;-59
2023/06/29 02:40:48;;;;;;;;;;;25.10;51.60;;;;;;5052796;28;19921;-59
2023/06/29 02:43:15;;;;;;;;;;;25.00;51.60;;;;;;5052334;28;20384;-59
2023/06/29 02:45:42;;;;;;;;;;;25.00;51.60;;;;;;5053492;28;20360;-59
2023/06/29 02:48:10;;;;;;;;;;;25.00;51.60;;;;;;5053318;28;19921;-59
2023/06/29 02:50:37;;;;;;;;;;;25.00;51.60;;;;;;5052651;28;19921;-59
2023/06/29 02:53:04;;;;;;;;;;;25.00;51.60;;;;;;5053434;28;19948;-59
2023/06/29 02:55:31;;;;;;;;;;;25.00;51.70;;;;;;5052823;28;20456;-59
2023/06/29 02:57:58;;;;;;;;;;;25.00;51.60;;;;;;5053499;28;19921;-59
2023/06/29 03:00:25;;;;;;;;;;;25.00;51.70;;;;;;5053120;28;19982;-59
2023/06/29 03:02:52;;;;;;;;;;;25.00;51.70;;;;;;5053074;28;20428;-59
2023/06/29 03:05:20;;;;;;;;;;;25.00;51.70;;;;;;5052549;28;19921;-59
2023/06/29 03:07:47;;;;;;;;;;;25.00;51.70;;;;;;5053069;28;19921;-59
2023/06/29 03:10:14;;;;;;;;;;;25.00;51.60;;;;;;5052525;28;19925;-60
2023/06/29 03:12:41;;;;;;;;;;;25.00;51.60;;;;;;5053017;28;19928;-59
2023/06/29 03:15:09;;;;;;;;;;;25.00;51.60;;;;;;5055297;28;19920;-59
2023/06/29 03:17:36;;;;;;;;;;;25.00;51.60;;;;;;5057370;28;20339;-59
2023/06/29 03:20:06;;;;;;;;;;;25.00;51.60;;;;;;5056719;28;19967;-59
2023/06/29 03:22:34;;;;;;;;;;;25.00;51.60;;;;;;5057231;28;19925;-59
2023/06/29 03:25:02;;;;;;;;;;;25.00;51.60;;;;;;5056935;28;19921;-59
2023/06/29 03:27:28;;;;;;;;;;;25.00;51.50;;;;;;5057340;28;19956;-59
2023/06/29 03:29:55;;;;;;;;;;;25.00;51.50;;;;;;5056311;28;19976;-59
2023/06/29 03:32:23;;;;;;;;;;;25.10;51.50;;;;;;5056604;28;19924;-59
2023/06/29 03:34:50;;;;;;;;;;;25.10;51.50;;;;;;5056682;28;19931;-59
2023/06/29 03:37:18;;;;;;;;;;;25.10;51.50;;;;;;5057170;28;19921;-59
2023/06/29 03:39:45;;;;;;;;;;;25.10;51.50;;;;;;5057004;28;20339;-59
2023/06/29 03:42:12;;;;;;;;;;;25.00;51.40;;;;;;5056471;28;19924;-59
2023/06/29 03:44:39;;;;;;;;;;;25.10;51.40;;;;;;5056245;28;19925;-59
2023/06/29 03:47:06;;;;;;;;;;;25.10;51.40;;;;;;5056417;28;19921;-59
2023/06/29 03:49:33;;;;;;;;;;;25.10;51.30;;;;;;5089146;28;19925;-59
2023/06/29 03:52:00;;;;;;;;;;;25.10;51.30;;;;;;5087999;28;19971;-59
2023/06/29 03:54:27;;;;;;;;;;;25.10;51.20;;;;;;5055987;28;19925;-59
2023/06/29 03:56:55;;;;;;;;;;;25.10;51.20;;;;;;5056103;28;20003;-59
2023/06/29 03:59:22;;;;;;;;;;;25.20;51.20;;;;;;5054918;28;19928;-60
2023/06/29 04:01:49;;;;;;;;;;;25.20;51.20;;;;;;5055733;28;19921;-59
2023/06/29 04:04:16;;;;;;;;;;;25.20;51.10;;;;;;5054254;28;19921;-59
2023/06/29 04:06:43;;;;;;;;;;;25.20;51.10;;;;;;5055404;28;20350;-59
2023/06/29 04:09:11;;;;;;;;;;;25.20;51.10;;;;;;5056566;28;20012;-59
2023/06/29 04:11:38;;;;;;;;;;;25.20;51.00;;;;;;5055126;28;19932;-59
2023/06/29 04:14:05;;;;;;;;;;;25.20;51.00;;;;;;5055757;28;19964;-59
2023/06/29 04:16:32;;;;;;;;;;;25.30;51.00;;;;;;5055371;28;20011;-59
2023/06/29 04:18:59;;;;;;;;;;;25.30;50.90;;;;;;5054696;28;20385;-59
2023/06/29 04:21:27;;;;;;;;;;;25.30;50.90;;;;;;5055779;28;19920;-59
2023/06/29 04:23:54;;;;;;;;;;;25.30;50.80;;;;;;5055776;28;19921;-59
2023/06/29 04:26:21;;;;;;;;;;;25.30;50.80;;;;;;5054219;28;19967;-59
2023/06/29 04:28:48;;;;;;;;;;;25.40;50.80;;;;;;5053488;28;19920;-59
2023/06/29 04:31:16;;;;;;;;;;;25.40;50.80;;;;;;5055805;28;20327;-59
2023/06/29 04:33:43;;;;;;;;;;;25.40;50.70;;;;;;5054606;28;19920;-59
2023/06/29 04:36:13;;;;;;;;;;;25.40;50.70;;;;;;5055913;28;19932;-59
2023/06/29 04:38:40;;;;;;;;;;;25.40;50.90;;;;;;5055789;28;19927;-59
2023/06/29 04:41:09;;;;;;;;;;;25.30;50.80;;;;;;5053534;28;20364;-59
2023/06/29 04:43:36;;;;;;;;;;;25.20;50.90;;;;;;5086796;28;19932;-59
2023/06/29 04:46:04;;;;;;;;;;;25.00;51.10;;;;;;5054136;28;19931;-59
2023/06/29 04:48:37;;;;;;;;;;;24.80;51.50;;;;;;5054727;28;19968;-59
2023/06/29 04:51:05;;;;;;;;;;;24.50;51.40;;;;;;5055068;28;19924;-59
2023/06/29 04:53:33;;;;;;;;;;;24.20;50.80;;;;;;5056716;28;20421;-59
2023/06/29 04:56:01;;;;;;;;;;;23.90;50.40;;;;;;5054456;28;19943;-59
2023/06/29 04:58:28;;;;;;;;;;;23.60;49.90;;;;;;5052805;28;20308;-59
2023/06/29 05:00:56;;;;;;;;;;;23.30;49.60;;;;;;5051236;28;20443;-58
2023/06/29 05:03:24;;;;;;;;;;;22.90;49.70;;;;;;5050102;28;21033;-59
2023/06/29 05:05:51;;;;;;;;;;;22.50;49.60;;;;;;5050880;28;19920;-59
2023/06/29 05:08:18;;;;;;;;;;;22.20;50.00;;;;;;5053554;28;20327;-59
2023/06/29 05:10:45;;;;;;;;;;;21.80;50.10;;;;;;5055104;28;19932;-59
2023/06/29 05:13:12;;;;;;;;;;;21.50;51.10;;;;;;5053629;28;19921;-58
2023/06/29 05:15:40;;;;;;;;;;;21.30;51.60;;;;;;5042587;28;20297;-60
2023/06/29 05:18:09;;;;;;;;;;;21.10;51.90;;;;;;5047613;28;19986;-60
2023/06/29 05:20:37;;;;;;;;;;;20.80;52.10;;;;;;5047499;28;20439;-60
2023/06/29 05:23:04;;;;;;;;;;;20.60;53.40;;;;;;5055261;28;19920;-59
2023/06/29 05:25:31;;;;;;;;;;;20.50;53.80;;;;;;5050361;28;20440;-59
2023/06/29 05:27:58;;;;;;;;;;;20.40;53.70;;;;;;5045971;28;19940;-59
2023/06/29 05:30:24;;;;;;;;;;;20.20;53.40;;;;;;5052939;28;19975;-59
2023/06/29 05:32:52;;;;;;;;;;;20.10;54.20;;;;;;5044604;28;20415;-58
2023/06/29 05:35:19;;;;;;;;;;;20.00;55.10;;;;;;5042008;28;19927;-59
2023/06/29 05:37:47;;;;;;;;;;;19.80;54.30;;;;;;5043506;28;19963;-59
2023/06/29 05:40:15;;;;;;;;;;;19.80;55.70;;;;;;5043632;28;19920;-59
2023/06/29 05:42:42;;;;;;;;;;;19.70;55.60;;;;;;5046370;28;20281;-60
2023/06/29 05:45:09;;;;;;;;;;;19.70;55.40;;;;;;5044177;28;20049;-60
2023/06/29 05:47:36;;;;;;;;;;;19.60;55.50;;;;;;5044744;28;19947;-60
2023/06/29 05:50:04;;;;;;;;;;;19.40;56.80;;;;;;5049832;28;19925;-60
2023/06/29 05:52:33;;;;;;;;;;;19.40;57.30;;;;;;5046626;28;20315;-60
2023/06/29 05:55:01;;;;;;;;;;;19.30;56.20;;;;;;5040745;28;19927;-59
2023/06/29 05:57:30;;;;;;;;;;;19.20;56.60;;;;;;5044236;28;19948;-59
2023/06/29 05:59:57;;;;;;;;;;;19.20;56.80;;;;;;5043503;28;19939;-59
2023/06/29 06:02:24;;;;;;;;;;;19.20;56.80;;;;;;5047032;28;19930;-59
2023/06/29 06:04:51;;;;;;;;;;;19.10;56.70;;;;;;5045979;28;20176;-59
2023/06/29 06:07:28;;;;;;;;;;;19.10;56.40;;;;;;5045981;28;19924;-59
2023/06/29 06:09:56;;;;;;;;;;;19.20;56.70;;;;;;5048173;28;19986;-59
2023/06/29 06:12:23;;;;;;;;;;;19.20;57.20;;;;;;5045027;28;19921;-60
2023/06/29 06:14:50;;;;;;;;;;;19.20;57.30;;;;;;5047905;28;19958;-59
2023/06/29 06:17:17;;;;;;;;;;;19.20;56.40;;;;;;5040277;28;19975;-58
2023/06/29 06:19:45;;;;;;;;;;;19.10;56.20;;;;;;5044437;28;19982;-60
2023/06/29 06:22:12;;;;;;;;;;;19.00;56.40;;;;;;5040855;28;19983;-59
2023/06/29 06:24:39;;;;;;;;;;;18.90;57.30;;;;;;5044155;28;19929;-60
2023/06/29 06:27:07;;;;;;;;;;;18.90;57.20;;;;;;5046924;28;19929;-59
2023/06/29 06:29:34;;;;;;;;;;;18.80;57.60;;;;;;5045703;28;20579;-60
2023/06/29 06:32:02;;;;;;;;;;;18.70;57.10;;;;;;5044524;28;19929;-61
2023/06/29 06:34:32;;;;;;;;;;;18.70;57.90;;;;;;5043540;28;20301;-61
2023/06/29 06:36:59;;;;;;;;;;;18.70;57.90;;;;;;5045267;28;20012;-60
2023/06/29 06:39:26;;;;;;;;;;;18.70;57.50;;;;;;5047288;28;20446;-60
2023/06/29 06:41:53;;;;;;;;;;;18.70;57.50;;;;;;5051341;28;19967;-61
2023/06/29 06:44:21;;;;;;;;;;;18.70;58.40;;;;;;5047710;28;19925;-60
2023/06/29 06:46:48;;;;;;;;;;;18.60;57.40;;;;;;5042590;28;19920;-60
2023/06/29 06:49:15;;;;;;;;;;;18.60;57.40;;;;;;5048367;28;20001;-60
2023/06/29 06:51:42;;;;;;;;;;;18.60;58.10;;;;;;5041373;28;19928;-60
2023/06/29 06:54:09;;;;;;;;;;;18.60;57.40;;;;;;5044234;28;19991;-59
2023/06/29 06:56:37;;;;;;;;;;;18.60;57.90;;;;;;5074814;28;20338;-59
2023/06/29 06:59:07;;;;;;;;;;;18.50;58.30;;;;;;5049766;28;19969;-60
2023/06/29 07:01:39;;;;;;;;;;;18.60;58.00;;;;;;5043655;28;19925;-62
2023/06/29 07:04:06;;;;;;;;;;;18.60;57.90;;;;;;5037401;28;19920;-62
2023/06/29 07:06:33;;;;;;;;;;;18.60;57.50;;;;;;5043023;28;19921;-59
2023/06/29 07:09:03;;;;;;;;;;;18.60;58.50;;;;;;5045635;28;19924;-63
2023/06/29 07:11:30;;;;;;;;;;;18.70;58.50;;;;;;5043395;28;19927;-60
2023/06/29 07:13:57;;;;;;;;;;;18.70;58.30;;;;;;5040767;28;19960;-58
2023/06/29 07:16:25;;;;;;;;;;;18.70;58.10;;;;;;5045017;28;19998;-60
2023/06/29 07:19:03;;;;;;;;;;;18.70;59.10;;;;;;5044716;28;19924;-61
2023/06/29 07:21:50;;;;;;;;;;;18.70;59.00;;;;;;5043277;28;19928;-61
2023/06/29 07:24:21;;;;;;;;;;;18.80;58.90;;;;;;5046686;28;19950;-60
2023/06/29 07:26:48;;;;;;;;;;;18.80;58.60;;;;;;5044054;28;19947;-60
2023/06/29 07:29:15;;;;;;;;;;;18.80;58.40;;;;;;5046408;28;19920;-59
2023/06/29 07:31:42;;;;;;;;;;;18.80;58.60;;;;;;5047175;28;19935;-64
2023/06/29 07:34:10;;;;;;;;;;;18.80;58.00;;;;;;5046945;28;19924;-59
2023/06/29 07:36:37;;;;;;;;;;;18.80;58.50;;;;;;5046457;28;19941;-60
2023/06/29 07:39:04;;;;;;;;;;;18.70;57.50;;;;;;5046834;28;19921;-61
2023/06/29 07:41:31;;;;;;;;;;;18.80;57.80;;;;;;5044374;28;20020;-60
2023/06/29 07:43:59;;;;;;;;;;;18.70;57.90;;;;;;5046031;28;19929;-60
2023/06/29 07:46:27;;;;;;;;;;;18.80;57.90;;;;;;5043082;28;19925;-60
2023/06/29 07:48:54;;;;;;;;;;;18.80;57.80;;;;;;5048568;28;20400;-59
2023/06/29 07:51:22;;;;;;;;;;;18.80;58.10;;;;;;5044287;28;19937;-61
2023/06/29 07:53:50;;;;;;;;;;;18.80;57.80;;;;;;5047789;28;19920;-59
2023/06/29 07:56:18;;;;;;;;;;;18.80;57.70;;;;;;5040556;28;20283;-60
2023/06/29 07:58:46;;;;;;;;;;;18.90;58.40;;;;;;5044478;28;19921;-59
2023/06/29 08:01:13;;;;;;;;;;;18.90;57.40;;;;;;5047560;28;20446;-60
2023/06/29 08:03:41;;;;;;;;;;;18.90;57.80;;;;;;5049913;28;20015;-60
2023/06/29 08:06:27;;;;;;;;;;;18.90;57.80;;;;;;5047517;28;19939;-59
2023/06/29 08:08:57;;;;;;;;;;;19.00;57.90;;;;;;5050095;28;19925;-60
2023/06/29 08:11:24;;;;;;;;;;;19.00;57.80;;;;;;5046378;28;19925;-60
2023/06/29 08:13:51;;;;;;;;;;;19.10;57.90;;;;;;5053649;28;19921;-59
2023/06/29 08:16:19;;;;;;;;;;;19.10;57.90;;;;;;5046401;28;19921;-59
2023/06/29 08:18:46;;;;;;;;;;;19.10;58.00;;;;;;5046019;28;20785;-59
2023/06/29 08:21:13;;;;;;;;;;;19.10;58.00;;;;;;5047912;28;19928;-59
2023/06/29 08:23:40;;;;;;;;;;;19.10;58.00;;;;;;5042772;28;19928;-59
2023/06/29 08:26:07;;;;;;;;;;;19.10;57.80;;;;;;5045038;28;19947;-59
2023/06/29 08:28:35;;;;;;;;;;;19.20;57.60;;;;;;5045996;28;19937;-59
2023/06/29 08:31:02;;;;;;;;;;;19.20;57.30;;;;;;5050148;28;20372;-59
2023/06/29 08:33:33;;;;;;;;;;;19.30;57.20;;;;;;5050954;28;19924;-59
2023/06/29 08:36:00;;;;;;;;;;;19.30;57.20;;;;;;5049009;28;19928;-59
2023/06/29 08:38:27;;;;;;;;;;;19.30;57.00;;;;;;5047770;28;19941;-60
2023/06/29 08:40:57;;;;;;;;;;;19.30;56.70;;;;;;5048569;28;20012;-58
2023/06/29 08:43:24;;;;;;;;;;;19.40;57.00;;;;;;5047629;28;19944;-59
2023/06/29 08:45:51;;;;;;;;;;;19.40;57.00;;;;;;5047195;28;20327;-61
2023/06/29 08:48:19;;;;;;;;;;;19.50;56.40;;;;;;5048329;28;19928;-62
2023/06/29 08:50:58;;;;;;;;;;;19.50;56.40;;;;;;5044195;28;20384;-61
2023/06/29 08:53:25;;;;;;;;;;;19.50;56.30;;;;;;5043233;28;19936;-60
2023/06/29 08:55:53;;;;;;;;;;;19.50;56.50;;;;;;5046947;28;19921;-61
2023/06/29 08:58:21;;;;;;;;;;;19.50;56.40;;;;;;5046212;28;19929;-60
2023/06/29 09:00:49;;;;;;;;;;;19.50;56.60;;;;;;5074961;28;19959;-60
2023/06/29 09:03:17;;;;;;;;;;;19.60;56.10;;;;;;5049717;28;19920;-60
2023/06/29 09:05:47;;;;;;;;;;;19.60;55.60;;;;;;5048592;28;20352;-61
2023/06/29 09:08:17;;;;;;;;;;;19.60;55.40;;;;;;5047499;28;19933;-61
2023/06/29 09:10:46;;;;;;;;;;;19.60;54.80;;;;;;5048796;28;19982;-59
2023/06/29 09:13:13;;;;;;;;;;;19.70;54.40;;;;;;5045358;28;19925;-60
2023/06/29 09:15:41;;;;;;;;;;;19.70;54.50;;;;;;5043754;28;19975;-60
2023/06/29 09:18:09;;;;;;;;;;;19.80;54.60;;;;;;5044724;28;20368;-60
2023/06/29 09:20:36;;;;;;;;;;;19.70;54.80;;;;;;5042307;28;20056;-61
2023/06/29 09:23:04;;;;;;;;;;;19.70;54.50;;;;;;5070317;28;19921;-60
2023/06/29 09:25:33;;;;;;;;;;;19.70;54.90;;;;;;5041013;28;20019;-60
2023/06/29 09:28:02;;;;;;;;;;;19.80;54.60;;;;;;5043504;28;19952;-61
2023/06/29 09:30:34;;;;;;;;;;;19.80;54.40;;;;;;5040656;28;19924;-58
2023/06/29 09:33:04;;;;;;;;;;;19.70;54.50;;;;;;5043231;28;19931;-55
2023/06/29 09:35:31;;;;;;;;;;;19.70;54.90;;;;;;5047465;28;20352;-57
2023/06/29 09:38:00;;;;;;;;;;;19.70;55.30;;;;;;5045474;28;20323;-58
2023/06/29 09:40:28;;;;;;;;;;;19.70;55.40;;;;;;5049136;28;19979;-58
2023/06/29 09:42:55;;;;;;;;;;;19.70;56.10;;;;;;5046871;28;19975;-58
2023/06/29 09:45:22;;;;;;;;;;;19.70;55.70;;;;;;5044564;28;19979;-58
2023/06/29 09:47:50;;;;;;;;;;;19.80;56.30;;;;;;5047068;28;19974;-57
2023/06/29 09:50:20;;;;;;;;;;;19.80;56.20;;;;;;5038619;28;19960;-58
2023/06/29 09:52:51;;;;;;;;;;;19.80;56.60;;;;;;5045026;28;19928;-56
2023/06/29 09:55:27;;;;;;;;;;;19.80;56.90;;;;;;5043638;28;19935;-58
2023/06/29 09:57:56;;;;;;;;;;;19.80;56.50;;;;;;5048423;28;19963;-58
2023/06/29 10:00:23;;;;;;;;;;;19.80;56.60;;;;;;5047060;28;20319;-58
2023/06/29 10:02:50;;;;;;;;;;;19.80;56.60;;;;;;5049563;28;19939;-59
2023/06/29 10:05:18;;;;;;;;;;;19.80;56.90;;;;;;5046458;28;20015;-55
2023/06/29 10:07:44;;;;;;;;;;;19.80;56.00;;;;;;5048045;28;20332;-58
2023/06/29 10:10:14;;;;;;;;;;;19.90;55.90;;;;;;5048037;28;19920;-59
2023/06/29 10:12:41;;;;;;;;;;;19.90;55.30;;;;;;5053759;28;19928;-59
2023/06/29 10:15:09;;;;;;;;;;;19.80;55.00;;;;;;5049020;28;19932;-59
2023/06/29 10:17:49;;;;;;;;;;;19.80;54.80;;;;;;5050712;28;19924;-59
2023/06/29 10:20:18;;;;;;;;;;;19.80;54.60;;;;;;5045084;28;19925;-59
2023/06/29 10:22:46;;;;;;;;;;;19.70;54.20;;;;;;5049515;28;19933;-59
2023/06/29 10:25:15;;;;;;;;;;;19.70;55.00;;;;;;5041029;28;20411;-58
2023/06/29 10:27:43;;;;;;;;;;;19.70;54.90;;;;;;5045188;28;19925;-60
2023/06/29 10:30:10;;;;;;;;;;;19.70;54.80;;;;;;5047215;28;19936;-59
2023/06/29 10:32:38;;;;;;;;;;;19.70;54.60;;;;;;5045971;28;19921;-59
2023/06/29 10:35:09;;;;;;;;;;;19.70;54.60;;;;;;5043611;28;19935;-59
2023/06/29 10:37:37;;;;;;;;;;;19.70;54.50;;;;;;5044281;28;19927;-59
2023/06/29 10:40:13;;;;;;;;;;;19.70;54.30;;;;;;5045136;28;19921;-60
2023/06/29 10:42:47;;;;;;;;;;;19.70;54.30;;;;;;5044853;28;20293;-60
2023/06/29 10:45:34;;;;;;;;;;;19.70;54.30;;;;;;5042555;28;19986;-59
2023/06/29 10:48:02;;;;;;;;;;;19.70;54.10;;;;;;5066355;28;20706;-60
2023/06/29 10:50:34;;;;;;;;;;;19.60;54.20;;;;;;5044672;28;19986;-59
2023/06/29 10:53:03;;;;;;;;;;;19.70;54.00;;;;;;5041552;28;20389;-59
2023/06/29 10:55:45;;;;;;;;;;;19.60;54.00;;;;;;5046571;28;20022;-60
2023/06/29 10:58:19;;;;;;;;;;;19.60;54.00;;;;;;5048161;28;19932;-60
2023/06/29 11:00:47;;;;;;;;;;;19.60;54.30;;;;;;5046546;28;19987;-59
2023/06/29 11:03:15;;;;;;;;;;;19.60;54.10;;;;;;5039864;28;20012;-59
2023/06/29 11:05:43;;;;;;;;;;;19.50;54.40;;;;;;5046852;28;20014;-59
2023/06/29 11:08:10;;;;;;;;;;;19.50;54.50;;;;;;5056537;28;19965;-59
2023/06/29 11:10:37;;;;;;;;;;;19.50;54.30;;;;;;5047100;28;19924;-59
2023/06/29 11:13:08;;;;;;;;;;;19.60;54.50;;;;;;5078570;28;20365;-59
2023/06/29 11:15:36;;;;;;;;;;;19.60;54.50;;;;;;5048978;28;19921;-60
2023/06/29 11:18:04;;;;;;;;;;;19.60;54.40;;;;;;5056147;28;19920;-50
2023/06/29 11:20:33;;;;;;;;;;;19.60;54.40;;;;;;5045550;28;19928;-59
2023/06/29 11:23:01;;;;;;;;;;;19.60;54.50;;;;;;5048126;28;19920;-59
2023/06/29 11:25:31;;;;;;;;;;;19.60;54.30;;;;;;5041057;28;19937;-59
2023/06/29 11:27:58;;;;;;;;;;;19.60;54.50;;;;;;5042832;28;19928;-59
2023/06/29 11:30:26;;;;;;;;;;;19.50;54.70;;;;;;5045029;28;20023;-59
2023/06/29 11:32:53;;;;;;;;;;;19.50;54.90;;;;;;5050274;28;20373;-53
2023/06/29 11:35:21;;;;;;;;;;;19.50;55.00;;;;;;5048606;28;19920;-55
2023/06/29 11:37:50;;;;;;;;;;;19.40;55.20;;;;;;5050251;28;19979;-59
2023/06/29 11:40:21;;;;;;;;;;;19.40;55.60;;;;;;5052250;28;20249;-56
2023/06/29 11:42:49;;;;;;;;;;;19.40;55.40;;;;;;5050651;28;19979;-57
2023/06/29 11:45:17;;;;;;;;;;;19.40;55.40;;;;;;5049739;28;19952;-58
2023/06/29 11:47:46;;;;;;;;;;;19.40;55.60;;;;;;5051323;28;20323;-59
2023/06/29 11:50:15;;;;;;;;;;;19.50;55.40;;;;;;5052103;28;19925;-57
2023/06/29 11:52:44;;;;;;;;;;;19.50;55.50;;;;;;5049090;28;19925;-58
2023/06/29 11:55:12;;;;;;;;;;;19.50;55.20;;;;;;5049706;28;20324;-59
2023/06/29 11:57:41;;;;;;;;;;;19.50;55.20;;;;;;5047226;28;19925;-59
2023/06/29 12:00:30;;;;;;;;;;;19.50;55.40;;;;;;5076903;28;20047;-59
2023/06/29 12:03:05;;;;;;;;;;;19.50;55.50;;;;;;5048396;28;19925;-58
2023/06/29 12:05:33;;;;;;;;;;;19.60;55.50;;;;;;5049213;28;19929;-59
2023/06/29 12:08:04;;;;;;;;;;;19.60;55.20;;;;;;5048596;28;19950;-59
2023/06/29 12:10:34;;;;;;;;;;;19.60;55.10;;;;;;5050598;28;20069;-59
2023/06/29 12:13:01;;;;;;;;;;;19.70;55.10;;;;;;5056943;28;19970;-57
2023/06/29 12:15:31;;;;;;;;;;;19.60;55.30;;;;;;5047320;28;19928;-59
2023/06/29 12:17:59;;;;;;;;;;;19.60;55.30;;;;;;5049046;28;19994;-56
2023/06/29 12:20:27;;;;;;;;;;;19.60;55.90;;;;;;5049985;28;19929;-57
2023/06/29 12:22:54;;;;;;;;;;;19.60;55.80;;;;;;5052193;28;19921;-59
2023/06/29 12:25:22;;;;;;;;;;;19.60;56.10;;;;;;5042848;28;19928;-56
2023/06/29 12:27:49;;;;;;;;;;;19.60;56.50;;;;;;5046611;28;20292;-56
2023/06/29 12:30:20;;;;;;;;;;;19.70;56.60;;;;;;5055216;28;19968;-52
2023/06/29 12:32:49;;;;;;;;;;;19.70;56.70;;;;;;5050660;28;19927;-54
2023/06/29 12:35:16;;;;;;;;;;;19.70;57.10;;;;;;5048331;28;19928;-58
2023/06/29 12:37:44;;;;;;;;;;;19.70;56.10;;;;;;5048045;28;19921;-55
2023/06/29 12:40:11;;;;;;;;;;;19.70;56.20;;;;;;5053312;28;20370;-53
2023/06/29 12:42:38;;;;;;;;;;;19.70;56.30;;;;;;5049644;28;19959;-55
2023/06/29 12:45:06;;;;;;;;;;;19.70;56.30;;;;;;5041944;28;19928;-56
2023/06/29 12:47:36;;;;;;;;;;;19.80;56.40;;;;;;5048135;28;20022;-54
2023/06/29 12:50:03;;;;;;;;;;;19.80;56.40;;;;;;5051543;28;19921;-57
2023/06/29 12:52:31;;;;;;;;;;;19.90;56.40;;;;;;5047833;28;20023;-53
2023/06/29 12:54:58;;;;;;;;;;;20.00;56.80;;;;;;5050277;28;19952;-55
2023/06/29 12:57:26;;;;;;;;;;;20.00;56.70;;;;;;5047148;28;20434;-55
2023/06/29 12:59:53;;;;;;;;;;;20.10;56.60;;;;;;5049013;28;19929;-51
2023/06/29 13:02:21;;;;;;;;;;;20.10;56.50;;;;;;5050402;28;20434;-58
2023/06/29 13:04:48;;;;;;;;;;;20.20;56.50;;;;;;5049966;28;19925;-58
2023/06/29 13:07:17;;;;;;;;;;;20.20;56.20;;;;;;5047647;28;19928;-56
2023/06/29 13:09:47;;;;;;;;;;;20.20;56.10;;;;;;5046886;28;19927;-55
2023/06/29 13:12:14;;;;;;;;;;;20.20;56.00;;;;;;5047720;28;20800;-55
2023/06/29 13:14:42;;;;;;;;;;;20.30;55.90;;;;;;5048863;28;19921;-57
2023/06/29 13:17:10;;;;;;;;;;;20.30;55.60;;;;;;5046932;28;19932;-57
2023/06/29 13:19:38;;;;;;;;;;;20.30;55.90;;;;;;5043553;28;19921;-54
2023/06/29 13:22:05;;;;;;;;;;;20.30;55.80;;;;;;5052100;28;19927;-57
2023/06/29 13:24:33;;;;;;;;;;;20.30;55.40;;;;;;5081023;28;19970;-57
2023/06/29 13:27:02;;;;;;;;;;;20.30;55.50;;;;;;5050387;28;19928;-56
2023/06/29 13:29:29;;;;;;;;;;;20.30;55.70;;;;;;5049633;28;19928;-58
2023/06/29 13:31:57;;;;;;;;;;;20.30;55.80;;;;;;5048437;28;19921;-57
2023/06/29 13:34:25;;;;;;;;;;;20.30;55.80;;;;;;5045514;28;19974;-57
2023/06/29 13:36:52;;;;;;;;;;;20.30;55.80;;;;;;5051635;28;20003;-56
2023/06/29 13:39:20;;;;;;;;;;;20.30;55.80;;;;;;5046950;28;20407;-55
2023/06/29 13:41:49;;;;;;;;;;;20.40;55.70;;;;;;5052788;28;19928;-55
2023/06/29 13:44:16;;;;;;;;;;;20.40;55.80;;;;;;5045106;28;19925;-56
2023/06/29 13:46:46;;;;;;;;;;;20.40;55.70;;;;;;5051722;28;20315;-55
2023/06/29 13:49:15;;;;;;;;;;;20.50;55.90;;;;;;5048359;28;19960;-55
2023/06/29 13:51:42;;;;;;;;;;;20.50;55.70;;;;;;5044845;28;20419;-56
2023/06/29 13:54:12;;;;;;;;;;;20.50;55.50;;;;;;5041107;28;19928;-55
2023/06/29 13:56:39;;;;;;;;;;;20.60;55.60;;;;;;5045771;28;19935;-53
2023/06/29 13:59:08;;;;;;;;;;;20.60;56.30;;;;;;5047199;28;19925;-54
2023/06/29 14:01:36;;;;;;;;;;;20.60;55.70;;;;;;5047312;28;20482;-53
2023/06/29 14:04:04;;;;;;;;;;;20.70;58.70;;;;;;5045422;28;19994;-57
2023/06/29 14:06:34;;;;;;;;;;;20.90;60.70;;;;;;5077342;28;19982;-57
2023/06/29 14:09:02;;;;;;;;;;;21.20;63.00;;;;;;5051890;28;19927;-55
2023/06/29 14:11:29;;;;;;;;;;;21.60;63.60;;;;;;5045015;28;19929;-56
2023/06/29 14:13:57;;;;;;;;;;;21.90;64.20;;;;;;5045593;28;19931;-56
2023/06/29 14:16:24;;;;;;;;;;;22.30;64.70;;;;;;5044256;28;19921;-57
2023/06/29 14:18:52;;;;;;;;;;;22.60;64.50;;;;;;5046604;28;19928;-55
2023/06/29 14:21:19;;;;;;;;;;;22.90;64.40;;;;;;5045163;28;20377;-57